createdAt,value
2018-02-23T00:01:47.889Z,22.07
2018-02-23T00:04:16.541Z,31.70
2018-02-23T00:06:45.038Z,35.70
2018-02-23T00:09:13.375Z,33.47
2018-02-23T00:11:41.002Z,24.37
2018-02-23T00:14:09.240Z,25.10
2018-02-23T00:16:36.780Z,30.63
2018-02-23T00:19:04.466Z,28.20
2018-02-23T00:21:31.962Z,27.40
2018-02-23T00:24:00.499Z,36.60
2018-02-23T00:26:27.994Z,26.07
2018-02-23T00:28:55.529Z,34.67
2018-02-23T00:31:24.236Z,30.03
2018-02-23T00:33:51.760Z,30.47
2018-02-23T00:36:19.264Z,31.00
2018-02-23T00:38:46.779Z,37.70
2018-02-23T00:41:14.486Z,29.20
2018-02-23T00:43:43.233Z,34.57
2018-02-23T00:46:10.744Z,25.07
2018-02-23T00:48:38.253Z,21.40
2018-02-23T00:51:05.774Z,25.33
2018-02-23T00:53:33.276Z,31.57
2018-02-23T00:56:00.778Z,29.70
2018-02-23T00:58:29.038Z,23.27
2018-02-23T01:00:56.544Z,29.80
2018-02-23T01:03:24.931Z,26.77
2018-02-23T01:05:53.235Z,30.20
2018-02-23T01:08:20.863Z,24.27
2018-02-23T01:10:49.018Z,30.30
2018-02-23T01:13:16.511Z,21.83
2018-02-23T01:15:43.995Z,28.43
2018-02-23T01:18:11.480Z,28.87
2018-02-23T01:20:39.895Z,20.57
2018-02-23T01:23:07.642Z,28.23
2018-02-23T01:25:35.163Z,24.50
2018-02-23T01:28:02.669Z,29.97
2018-02-23T01:30:30.181Z,27.10
2018-02-23T01:32:57.680Z,21.83
2018-02-23T01:35:25.170Z,25.23
2018-02-23T01:37:52.640Z,28.07
2018-02-23T01:40:20.157Z,22.67
2018-02-23T01:42:47.670Z,24.07
2018-02-23T01:45:15.169Z,17.90
2018-02-23T01:47:42.678Z,20.03
2018-02-23T01:50:10.192Z,20.70
2018-02-23T01:52:38.439Z,22.30
2018-02-23T01:55:05.950Z,25.40
2018-02-23T01:57:33.451Z,25.83
2018-02-23T02:00:00.975Z,24.03
2018-02-23T02:02:28.495Z,22.60
2018-02-23T02:04:56.748Z,27.93
2018-02-23T02:07:24.270Z,19.37
2018-02-23T02:09:51.756Z,24.30
2018-02-23T02:12:19.231Z,27.93
2018-02-23T02:14:46.735Z,30.67
2018-02-23T02:17:14.217Z,25.80
2018-02-23T02:19:41.716Z,28.40
2018-02-23T02:22:09.976Z,31.67
2018-02-23T02:24:37.483Z,24.77
2018-02-23T02:27:04.974Z,21.70
2018-02-23T02:29:32.478Z,28.03
2018-02-23T02:32:01.675Z,31.63
2018-02-23T02:34:29.932Z,30.50
2018-02-23T02:36:58.205Z,22.47
2018-02-23T02:39:25.711Z,46.97
2018-02-23T02:41:53.203Z,38.87
2018-02-23T02:44:20.698Z,23.40
2018-02-23T02:46:48.955Z,29.27
2018-02-23T02:49:16.456Z,31.80
2018-02-23T02:51:43.989Z,28.73
2018-02-23T02:54:12.272Z,29.83
2018-02-23T02:56:40.512Z,28.43
2018-02-23T02:59:08.013Z,22.77
2018-02-23T03:01:36.256Z,36.23
2018-02-23T03:04:03.754Z,28.10
2018-02-23T03:06:32.009Z,34.97
2018-02-23T03:08:59.508Z,25.53
2018-02-23T03:11:26.982Z,26.40
2018-02-23T03:13:54.476Z,39.57
2018-02-23T03:16:22.729Z,46.70
2018-02-23T03:18:50.238Z,45.43
2018-02-23T03:21:18.480Z,33.53
2018-02-23T03:23:45.969Z,39.30
2018-02-23T03:26:14.213Z,35.10
2018-02-23T03:28:41.695Z,40.07
2018-02-23T03:31:09.184Z,47.50
2018-02-23T03:33:36.663Z,39.37
2018-02-23T03:36:04.160Z,31.73
2018-02-23T03:38:32.436Z,34.40
2018-02-23T03:40:59.939Z,42.10
2018-02-23T03:43:27.417Z,49.40
2018-02-23T03:45:54.920Z,32.83
2018-02-23T03:48:23.190Z,40.23
2018-02-23T03:50:50.757Z,46.03
2018-02-23T03:53:18.227Z,37.13
2018-02-23T03:55:46.484Z,49.00
2018-02-23T03:58:13.985Z,37.73
2018-02-23T04:00:41.466Z,27.87
2018-02-23T04:03:08.968Z,35.13
2018-02-23T04:05:36.469Z,49.00
2018-02-23T04:08:03.942Z,44.13
2018-02-23T04:10:31.447Z,49.37
2018-02-23T04:12:59.698Z,51.50
2018-02-23T04:15:27.191Z,50.20
2018-02-23T04:17:55.474Z,67.53
2018-02-23T04:20:23.732Z,49.30
2018-02-23T04:22:51.228Z,42.20
2018-02-23T04:25:18.707Z,48.77
2018-02-23T04:27:46.417Z,53.60
2018-02-23T04:30:14.688Z,55.37
2018-02-23T04:32:42.171Z,56.07
2018-02-23T04:35:10.430Z,46.97
2018-02-23T04:37:37.902Z,62.97
2018-02-23T04:40:06.202Z,51.93
2018-02-23T04:42:33.720Z,47.73
2018-02-23T04:45:01.231Z,45.83
2018-02-23T04:47:28.716Z,47.73
2018-02-23T04:49:56.189Z,46.00
2018-02-23T04:52:25.189Z,48.03
2018-02-23T04:54:52.683Z,50.67
2018-02-23T04:57:20.207Z,67.07
2018-02-23T04:59:47.683Z,48.57
2018-02-23T05:02:15.207Z,43.23
2018-02-23T05:04:42.694Z,43.90
2018-02-23T05:07:10.171Z,47.57
2018-02-23T05:09:38.455Z,51.23
2018-02-23T05:12:05.974Z,49.53
2018-02-23T05:14:33.474Z,61.67
2018-02-23T05:17:00.992Z,58.37
2018-02-23T05:19:28.492Z,48.40
2018-02-23T05:21:56.741Z,64.17
2018-02-23T05:24:24.232Z,56.90
2018-02-23T05:26:51.746Z,53.20
2018-02-23T05:29:19.251Z,45.73
2018-02-23T05:31:46.734Z,55.10
2018-02-23T05:34:14.222Z,56.57
2018-02-23T05:36:41.699Z,60.90
2018-02-23T05:39:09.983Z,49.63
2018-02-23T05:41:38.231Z,65.63
2018-02-23T05:44:05.747Z,55.53
2018-02-23T05:46:33.319Z,58.47
2018-02-23T05:49:00.827Z,52.20
2018-02-23T05:51:28.322Z,45.00
2018-02-23T05:53:55.812Z,56.47
2018-02-23T05:56:23.304Z,55.87
2018-02-23T05:58:50.790Z,56.10
2018-02-23T06:01:18.320Z,64.53
2018-02-23T06:03:45.808Z,37.97
2018-02-23T06:06:13.340Z,45.87
2018-02-23T06:08:40.818Z,59.03
2018-02-23T06:11:08.345Z,61.17
2018-02-23T06:13:35.839Z,54.73
2018-02-23T06:16:09.850Z,47.27
2018-02-23T06:18:43.819Z,44.80
2018-02-23T06:21:11.922Z,43.23
2018-02-23T06:23:40.179Z,52.70
2018-02-23T06:26:07.727Z,59.97
2018-02-23T06:28:35.266Z,49.07
2018-02-23T06:31:02.763Z,51.23
2018-02-23T06:33:30.258Z,40.03
2018-02-23T06:35:57.759Z,41.67
2018-02-23T06:38:25.589Z,48.20
2018-02-23T06:40:53.080Z,36.93
2018-02-23T06:43:20.566Z,46.00
2018-02-23T06:45:48.042Z,43.43
2018-02-23T06:48:16.312Z,41.67
2018-02-23T06:50:43.823Z,35.87
2018-02-23T06:53:11.386Z,54.60
2018-02-23T06:55:38.892Z,52.70
2018-02-23T06:58:06.453Z,52.20
2018-02-23T07:00:34.336Z,38.27
2018-02-23T07:03:02.011Z,55.27
2018-02-23T07:05:29.502Z,55.00
2018-02-23T07:07:57.038Z,56.03
2018-02-23T07:10:24.789Z,41.47
2018-02-23T07:12:52.290Z,51.47
2018-02-23T07:15:19.781Z,35.50
2018-02-23T07:17:47.314Z,37.37
2018-02-23T07:20:14.840Z,40.87
2018-02-23T07:22:42.333Z,39.17
2018-02-23T07:25:09.836Z,45.43
2018-02-23T07:27:38.113Z,43.90
2018-02-23T07:30:06.370Z,37.80
2018-02-23T07:32:33.883Z,39.17
2018-02-23T07:35:01.469Z,32.93
2018-02-23T07:37:28.956Z,40.67
2018-02-23T07:39:56.448Z,43.37
2018-02-23T07:42:24.041Z,48.50
2018-02-23T07:44:51.565Z,52.50
2018-02-23T07:47:19.044Z,38.00
2018-02-23T07:49:46.540Z,33.57
2018-02-23T07:52:14.037Z,32.17
2018-02-23T07:54:41.832Z,27.10
2018-02-23T07:57:09.323Z,29.00
2018-02-23T07:59:36.844Z,27.53
2018-02-23T08:02:04.325Z,30.30
2018-02-23T08:04:31.841Z,34.83
2018-02-23T08:06:59.316Z,23.47
2018-02-23T08:09:26.780Z,27.47
2018-02-23T08:11:54.287Z,20.73
2018-02-23T08:14:21.746Z,27.97
2018-02-23T08:16:49.998Z,16.80
2018-02-23T08:19:17.480Z,22.50
2018-02-23T08:21:45.015Z,21.80
2018-02-23T08:24:12.489Z,21.30
2018-02-23T08:26:39.978Z,17.90
2018-02-23T08:29:07.461Z,22.40
2018-02-23T08:31:34.944Z,17.23
2018-02-23T08:34:02.403Z,18.57
2018-02-23T08:36:29.890Z,19.70
2018-02-23T08:38:57.356Z,18.57
2018-02-23T08:41:25.620Z,17.30
2018-02-23T08:43:53.096Z,20.03
2018-02-23T08:46:21.366Z,22.70
2018-02-23T08:48:48.856Z,18.87
2018-02-23T08:51:16.354Z,21.37
2018-02-23T08:53:43.831Z,14.60
2018-02-23T08:56:11.288Z,24.77
2018-02-23T08:58:38.812Z,25.43
2018-02-23T09:01:06.309Z,20.77
2018-02-23T09:03:34.180Z,14.27
2018-02-23T09:06:02.456Z,11.30
2018-02-23T09:08:30.009Z,12.07
2018-02-23T09:10:58.267Z,9.90
2018-02-23T09:13:25.743Z,21.40
2018-02-23T09:15:53.254Z,10.33
2018-02-23T09:18:20.743Z,9.53
2018-02-23T09:20:48.218Z,13.47
2018-02-23T09:23:15.703Z,10.83
2018-02-23T09:25:43.334Z,14.03
2018-02-23T09:28:10.797Z,11.43
2018-02-23T09:30:39.946Z,7.93
2018-02-23T09:33:07.426Z,10.10
2018-02-23T09:35:35.476Z,9.07
2018-02-23T09:38:02.955Z,11.07
2018-02-23T09:40:30.426Z,10.50
2018-02-23T09:42:57.884Z,10.73
2018-02-23T09:45:25.369Z,20.53
2018-02-23T09:47:53.601Z,9.37
2018-02-23T09:50:21.079Z,8.03
2018-02-23T09:52:48.551Z,14.10
2018-02-23T09:55:16.811Z,10.60
2018-02-23T09:57:44.267Z,8.70
2018-02-23T10:00:11.808Z,9.20
2018-02-23T10:02:39.336Z,10.73
2018-02-23T10:05:06.857Z,11.57
2018-02-23T10:07:34.324Z,10.70
2018-02-23T10:10:02.587Z,9.03
2018-02-23T10:12:30.072Z,10.07
2018-02-23T10:14:58.303Z,13.57
2018-02-23T10:17:25.791Z,15.10
2018-02-23T10:19:54.236Z,10.27
2018-02-23T10:22:21.715Z,10.47
2018-02-23T10:24:49.235Z,9.43
2018-02-23T10:27:16.728Z,8.10
2018-02-23T10:29:44.177Z,8.87
2018-02-23T10:32:12.018Z,9.87
2018-02-23T10:34:39.504Z,12.63
2018-02-23T10:37:06.997Z,10.13
2018-02-23T10:39:35.265Z,8.83
2018-02-23T10:42:02.772Z,14.30
2018-02-23T10:44:30.264Z,11.37
2018-02-23T10:46:57.742Z,12.10
2018-02-23T10:49:25.207Z,10.50
2018-02-23T10:51:52.928Z,10.47
2018-02-23T10:54:20.418Z,9.97
2018-02-23T10:56:47.875Z,8.07
2018-02-23T10:59:15.369Z,10.27
2018-02-23T11:01:42.902Z,10.80
2018-02-23T11:04:10.368Z,10.17
2018-02-23T11:06:37.853Z,11.30
2018-02-23T11:09:05.352Z,10.70
2018-02-23T11:11:32.856Z,10.10
2018-02-23T11:14:01.152Z,9.00
2018-02-23T11:16:28.655Z,14.83
2018-02-23T11:18:56.147Z,8.97
2018-02-23T11:21:25.423Z,8.40
2018-02-23T11:23:52.895Z,14.63
2018-02-23T11:26:20.362Z,9.43
2018-02-23T11:28:47.859Z,13.17
2018-02-23T11:31:15.337Z,8.10
2018-02-23T11:33:42.836Z,8.90
2018-02-23T11:36:10.299Z,10.43
2018-02-23T11:38:37.774Z,16.20
2018-02-23T11:41:05.273Z,18.00
2018-02-23T11:43:32.755Z,11.47
2018-02-23T11:46:00.235Z,10.30
2018-02-23T11:48:28.483Z,18.10
2018-02-23T11:50:55.947Z,16.07
2018-02-23T11:53:23.448Z,13.97
2018-02-23T11:55:50.927Z,12.67
2018-02-23T11:58:18.411Z,12.63
2018-02-23T12:00:45.891Z,9.00
2018-02-23T12:03:14.169Z,11.33
2018-02-23T12:05:41.707Z,22.40
2018-02-23T12:08:09.212Z,24.17
2018-02-23T12:10:37.459Z,12.40
2018-02-23T12:13:04.942Z,13.50
2018-02-23T12:15:33.217Z,11.30
2018-02-23T12:18:00.980Z,15.57
2018-02-23T12:20:29.230Z,9.90
2018-02-23T12:22:56.712Z,10.70
2018-02-23T12:25:24.959Z,16.00
2018-02-23T12:27:52.539Z,11.33
2018-02-23T12:30:20.798Z,12.03
2018-02-23T12:32:48.264Z,9.00
2018-02-23T12:35:15.790Z,11.57
2018-02-23T12:37:43.346Z,8.67
2018-02-23T12:40:10.821Z,11.90
2018-02-23T12:42:39.318Z,10.93
2018-02-23T12:45:06.824Z,8.27
2018-02-23T12:47:35.163Z,11.63
2018-02-23T12:50:03.566Z,16.70
2018-02-23T12:52:33.422Z,13.87
2018-02-23T12:55:00.951Z,19.30
2018-02-23T12:57:29.191Z,13.03
2018-02-23T12:59:56.703Z,13.63
2018-02-23T13:02:24.170Z,9.93
2018-02-23T13:04:51.679Z,17.13
2018-02-23T13:07:19.980Z,11.20
2018-02-23T13:09:47.455Z,17.50
2018-02-23T13:12:15.991Z,13.20
2018-02-23T13:14:49.185Z,17.80
2018-02-23T13:17:16.810Z,13.20
2018-02-23T13:19:44.461Z,17.13
2018-02-23T13:22:12.040Z,16.00
2018-02-23T13:24:39.737Z,11.30
2018-02-23T13:27:13.309Z,19.13
2018-02-23T13:29:41.104Z,11.83
2018-02-23T13:32:08.950Z,16.90
2018-02-23T13:34:36.403Z,16.27
2018-02-23T13:37:04.025Z,18.83
2018-02-23T13:39:32.247Z,11.80
2018-02-23T13:41:59.740Z,17.70
2018-02-23T13:44:29.124Z,15.17
2018-02-23T13:46:58.859Z,18.47
2018-02-23T13:49:26.327Z,13.10
2018-02-23T13:51:53.944Z,14.27
2018-02-23T13:54:24.142Z,16.37
2018-02-23T13:56:51.735Z,13.43
2018-02-23T13:59:19.674Z,13.90
2018-02-23T14:01:47.915Z,16.63
2018-02-23T14:04:15.520Z,17.23
2018-02-23T14:06:52.941Z,9.70
2018-02-23T14:09:20.950Z,17.97
2018-02-23T14:11:51.244Z,12.73
2018-02-23T14:14:18.768Z,11.73
2018-02-23T14:16:46.305Z,16.77
2018-02-23T14:19:13.803Z,10.47
2018-02-23T14:22:02.777Z,13.83
2018-02-23T14:24:30.418Z,21.00
2018-02-23T14:26:59.106Z,14.00
2018-02-23T14:29:27.375Z,20.30
2018-02-23T14:31:55.639Z,15.47
2018-02-23T14:34:23.148Z,13.10
2018-02-23T14:36:51.655Z,9.33
2018-02-23T14:39:19.137Z,12.83
2018-02-23T14:41:46.614Z,16.70
2018-02-23T14:44:14.871Z,15.23
2018-02-23T14:46:42.398Z,11.77
2018-02-23T14:49:18.848Z,9.70
2018-02-23T14:51:46.326Z,12.83
2018-02-23T14:54:13.815Z,17.90
2018-02-23T14:56:41.285Z,17.90
2018-02-23T14:59:08.747Z,12.40
2018-02-23T15:01:37.036Z,16.47
2018-02-23T15:04:05.299Z,17.73
2018-02-23T15:06:33.678Z,15.20
2018-02-23T15:09:01.934Z,17.03
2018-02-23T15:11:29.480Z,22.30
2018-02-23T15:13:56.976Z,15.13
2018-02-23T15:16:25.258Z,14.13
2018-02-23T15:18:53.578Z,17.87
2018-02-23T15:21:21.089Z,16.60
2018-02-23T15:23:48.693Z,12.20
2018-02-23T15:26:16.166Z,15.10
2018-02-23T15:28:43.650Z,13.83
2018-02-23T15:31:23.157Z,16.70
2018-02-23T15:33:50.667Z,16.63
2018-02-23T15:36:18.126Z,14.20
2018-02-23T15:38:45.613Z,14.50
2018-02-23T15:41:13.098Z,15.60
2018-02-23T15:43:40.591Z,19.53
2018-02-23T15:46:08.073Z,19.83
2018-02-23T15:48:42.039Z,14.50
2018-02-23T15:54:19.281Z,14.10
2018-02-23T15:56:47.564Z,13.13
2018-02-23T15:59:15.865Z,15.37
2018-02-23T16:01:44.125Z,13.53
2018-02-23T16:04:11.622Z,23.60
2018-02-23T16:06:39.218Z,18.50
2018-02-23T16:09:06.724Z,17.00
2018-02-23T16:11:34.226Z,18.77
2018-02-23T16:14:01.981Z,20.50
2018-02-23T16:16:29.462Z,26.27
2018-02-23T16:18:57.020Z,17.23
2018-02-23T16:21:24.515Z,17.33
2018-02-23T16:23:53.049Z,19.20
2018-02-23T16:26:20.538Z,27.63
2018-02-23T16:28:48.788Z,21.97
2018-02-23T16:31:17.013Z,18.73
2018-02-23T16:33:44.510Z,17.33
2018-02-23T16:36:12.083Z,25.20
2018-02-23T16:38:39.621Z,18.20
2018-02-23T16:41:07.547Z,10.73
2018-02-23T16:43:35.247Z,17.20
2018-02-23T16:46:02.730Z,20.57
2018-02-23T16:48:30.284Z,20.47
2018-02-23T16:50:57.786Z,20.00
2018-02-23T16:53:26.095Z,13.17
2018-02-23T16:55:53.610Z,21.30
2018-02-23T16:58:21.861Z,19.33
2018-02-23T17:00:49.376Z,27.70
2018-02-23T17:03:16.878Z,15.67
2018-02-23T17:05:46.308Z,24.00
2018-02-23T17:08:15.255Z,17.73
2018-02-23T17:10:42.764Z,30.87
2018-02-23T17:13:10.258Z,15.90
2018-02-23T17:15:37.780Z,26.03
2018-02-23T17:18:05.278Z,21.83
2018-02-23T17:20:32.762Z,25.50
2018-02-23T17:23:00.279Z,26.13
2018-02-23T17:25:27.813Z,24.47
2018-02-23T17:27:55.307Z,23.90
2018-02-23T17:30:22.834Z,30.57
2018-02-23T17:32:50.296Z,27.43
2018-02-23T17:35:18.556Z,16.27
2018-02-23T17:37:46.040Z,22.40
2018-02-23T17:40:14.305Z,21.90
2018-02-23T17:42:41.793Z,20.07
2018-02-23T17:45:09.304Z,31.50
2018-02-23T17:47:36.801Z,29.87
2018-02-23T17:50:05.112Z,27.40
2018-02-23T17:52:34.580Z,26.63
2018-02-23T17:55:02.118Z,23.23
2018-02-23T17:57:29.644Z,16.70
2018-02-23T17:59:57.140Z,22.87
2018-02-23T18:02:24.671Z,26.87
2018-02-23T18:04:52.186Z,13.93
2018-02-23T18:07:19.706Z,25.70
2018-02-23T18:09:47.201Z,15.30
2018-02-23T18:12:15.500Z,19.00
2018-02-23T18:14:42.995Z,22.63
2018-02-23T18:17:10.557Z,24.77
2018-02-23T18:19:38.399Z,13.80
2018-02-23T18:22:05.880Z,21.80
2018-02-23T18:24:33.398Z,18.40
2018-02-23T18:27:00.903Z,29.00
2018-02-23T18:29:28.385Z,19.60
2018-02-23T18:31:56.700Z,18.70
2018-02-23T18:34:24.269Z,32.77
2018-02-23T18:36:51.805Z,15.27
2018-02-23T18:39:19.313Z,22.77
2018-02-23T18:41:46.847Z,23.50
2018-02-23T18:44:14.348Z,23.73
2018-02-23T18:46:41.835Z,20.73
2018-02-23T18:49:10.122Z,16.90
2018-02-23T18:51:37.662Z,20.10
2018-02-23T18:54:05.953Z,24.23
2018-02-23T18:56:34.221Z,27.57
2018-02-23T18:59:02.497Z,20.73
2018-02-23T19:01:30.752Z,18.67
2018-02-23T19:03:58.245Z,22.33
2018-02-23T19:06:25.726Z,16.80
2018-02-23T19:08:53.202Z,19.23
2018-02-23T19:11:20.761Z,26.80
2018-02-23T19:13:48.265Z,26.80
2018-02-23T19:16:15.710Z,17.70
2018-02-23T19:18:43.203Z,18.30
2018-02-23T19:21:11.147Z,22.40
2018-02-23T19:23:38.663Z,24.93
2018-02-23T19:26:06.166Z,15.07
2018-02-23T19:28:34.454Z,19.03
2018-02-23T19:31:03.683Z,18.97
2018-02-23T19:33:31.162Z,16.73
2018-02-23T19:35:58.655Z,19.03
2018-02-23T19:38:26.155Z,28.03
2018-02-23T19:40:53.679Z,18.90
2018-02-23T19:43:22.163Z,23.57
2018-02-23T19:45:49.647Z,21.70
2018-02-23T19:48:17.158Z,24.97
2018-02-23T19:50:44.655Z,20.03
2018-02-23T19:53:12.890Z,23.80
2018-02-23T19:55:41.184Z,18.33
2018-02-23T19:58:08.677Z,25.53
2018-02-23T20:00:36.408Z,16.00
2018-02-23T20:03:03.908Z,21.53
2018-02-23T20:05:34.176Z,24.30
2018-02-23T20:08:02.120Z,18.37
2018-02-23T20:10:30.433Z,26.47
2018-02-23T20:12:58.044Z,18.20
2018-02-23T20:15:25.812Z,22.47
2018-02-23T20:17:53.567Z,17.90
2018-02-23T20:20:21.082Z,26.00
2018-02-23T20:22:48.723Z,15.17
2018-02-23T20:25:16.775Z,22.03
2018-02-23T20:27:44.374Z,22.77
2018-02-23T20:30:11.871Z,25.70
2018-02-23T20:32:40.114Z,18.30
2018-02-23T20:35:07.599Z,19.97
2018-02-23T20:37:35.872Z,23.50
2018-02-23T20:40:03.553Z,13.60
2018-02-23T20:42:31.169Z,19.17
2018-02-23T20:44:59.126Z,15.40
2018-02-23T20:47:26.639Z,18.83
2018-02-23T20:49:54.182Z,23.30
2018-02-23T20:52:22.236Z,18.10
2018-02-23T20:54:51.948Z,16.93
2018-02-23T20:57:19.971Z,26.20
2018-02-23T20:59:48.829Z,13.20
2018-02-23T21:02:17.800Z,9.83
2018-02-23T21:04:45.301Z,13.20
2018-02-23T21:07:14.103Z,15.83
2018-02-23T21:09:41.588Z,18.03
2018-02-23T21:12:09.105Z,17.27
2018-02-23T21:14:37.378Z,11.13
2018-02-23T21:17:04.858Z,18.43
2018-02-23T21:19:32.363Z,16.60
2018-02-23T21:21:59.860Z,14.27
2018-02-23T21:24:28.106Z,12.60
2018-02-23T21:26:55.603Z,15.37
2018-02-23T21:29:23.118Z,16.17
2018-02-23T21:31:50.657Z,23.43
2018-02-23T21:34:18.162Z,23.17
2018-02-23T21:36:47.146Z,14.70
2018-02-23T21:39:14.636Z,15.00
2018-02-23T21:41:52.973Z,18.20
2018-02-23T21:44:20.519Z,18.97
2018-02-23T21:46:48.063Z,18.73
2018-02-23T21:49:16.426Z,17.97
2018-02-23T21:51:44.662Z,21.20
2018-02-23T21:54:12.139Z,19.27
2018-02-23T21:56:39.699Z,25.70
2018-02-23T21:59:07.210Z,23.00
2018-02-23T22:01:34.788Z,28.00
2018-02-23T22:04:02.317Z,20.03
2018-02-23T22:06:30.555Z,14.47
2018-02-23T22:08:58.051Z,20.40
2018-02-23T22:11:26.389Z,16.90
2018-02-23T22:13:53.882Z,17.57
2018-02-23T22:16:21.361Z,18.27
2018-02-23T22:18:49.619Z,18.73
2018-02-23T22:21:17.111Z,19.40
2018-02-23T22:23:44.592Z,20.83
2018-02-23T22:26:12.076Z,18.13
2018-02-23T22:28:39.539Z,15.03
2018-02-23T22:31:07.538Z,17.97
2018-02-23T22:33:35.779Z,13.07
2018-02-23T22:36:04.028Z,19.67
2018-02-23T22:38:31.503Z,15.40
2018-02-23T22:40:58.972Z,24.63
2018-02-23T22:43:26.474Z,21.97
2018-02-23T22:45:53.982Z,14.30
2018-02-23T22:48:21.491Z,20.87
2018-02-23T22:50:49.164Z,19.33
2018-02-23T22:53:17.218Z,20.40
2018-02-23T22:55:44.743Z,20.60
2018-02-23T22:58:12.236Z,20.17
2018-02-23T23:00:40.500Z,19.30
2018-02-23T23:03:07.996Z,21.00
2018-02-23T23:05:35.932Z,20.13
2018-02-23T23:08:04.177Z,24.47
2018-02-23T23:10:31.675Z,37.97
2018-02-23T23:12:59.915Z,32.30
2018-02-23T23:15:27.404Z,17.97
2018-02-23T23:17:54.977Z,25.17
2018-02-23T23:20:23.237Z,27.73
2018-02-23T23:22:51.491Z,40.13
2018-02-23T23:25:19.059Z,41.53
2018-02-23T23:27:47.351Z,29.43
2018-02-23T23:30:14.835Z,28.50
2018-02-23T23:32:42.339Z,32.53
2018-02-23T23:35:09.820Z,28.20
2018-02-23T23:37:37.298Z,23.07
2018-02-23T23:40:05.569Z,23.30
2018-02-23T23:42:33.817Z,25.23
2018-02-23T23:45:01.297Z,33.53
2018-02-23T23:47:29.562Z,33.33
2018-02-23T23:49:57.037Z,33.77
2018-02-23T23:52:25.299Z,34.73
2018-02-23T23:54:54.814Z,36.07
2018-02-23T23:57:23.076Z,31.30
2018-02-23T23:59:50.556Z,34.47
